Epping, New Hampshire
Current Conditions -  °F | °C
As of 12:13 PM on Wednesday 26 Nov 2014 (Local Time) from KPSM Reporting Station
Moderate Snow Moderate Snow  
Wind Chill: 25°   Ceiling: 200
Heat Index: 32°   Visibility: 0.5mi
Dew Point: 32°   Wind: 8mph
Humidity: 100%   Direction: 350°N
Pressure: 30.16"   Gusts: NA
Location:  43.04°N, 71.08°W
Report Text: KPSM 261713Z 35007KT 1/2SM R34/P6000FT SN BR BKN002 OVC006 00/00 A3016 RMK AO2A PRESRR
Loading
Personal Weather Stations






























Interactive Weather Map New forecast layout! Learn more

10-Day Weather Forecast

Advertisements
Track Severe Weather on mobile